sensor_id;sensor_type;location;lat;lon;timestamp;P1;durP1;ratioP1;P2;durP2;ratioP2
51174;SDS011;37240;50.104;20.010;2023-08-30T00:04:28;9.38;;;5.95;;
51174;SDS011;37240;50.104;20.010;2023-08-30T00:09:29;15.20;;;6.20;;
51174;SDS011;37240;50.104;20.010;2023-08-30T00:14:29;14.25;;;5.13;;
51174;SDS011;37240;50.104;20.010;2023-08-30T00:19:30;9.02;;;5.22;;
51174;SDS011;37240;50.104;20.010;2023-08-30T00:24:30;9.52;;;5.15;;
51174;SDS011;37240;50.104;20.010;2023-08-30T00:29:31;9.30;;;5.85;;
51174;SDS011;37240;50.104;20.010;2023-08-30T00:34:31;9.95;;;5.72;;
51174;SDS011;37240;50.104;20.010;2023-08-30T00:39:32;11.32;;;6.05;;
51174;SDS011;37240;50.104;20.010;2023-08-30T00:44:33;7.75;;;4.88;;
51174;SDS011;37240;50.104;20.010;2023-08-30T00:49:34;5.15;;;4.63;;
51174;SDS011;37240;50.104;20.010;2023-08-30T00:54:34;4.20;;;3.90;;
51174;SDS011;37240;50.104;20.010;2023-08-30T00:59:35;10.07;;;4.43;;
51174;SDS011;37240;50.104;20.010;2023-08-30T01:04:37;12.45;;;4.22;;
51174;SDS011;37240;50.104;20.010;2023-08-30T01:09:37;6.10;;;4.07;;
51174;SDS011;37240;50.104;20.010;2023-08-30T01:30:06;6.50;;;4.55;;
51174;SDS011;37240;50.104;20.010;2023-08-30T01:35:08;4.38;;;3.97;;
51174;SDS011;37240;50.104;20.010;2023-08-30T01:40:10;4.88;;;4.03;;
51174;SDS011;37240;50.104;20.010;2023-08-30T01:45:12;6.43;;;3.30;;
51174;SDS011;37240;50.104;20.010;2023-08-30T01:50:14;7.93;;;4.30;;
51174;SDS011;37240;50.104;20.010;2023-08-30T01:55:16;5.00;;;3.30;;
51174;SDS011;37240;50.104;20.010;2023-08-30T02:00:19;4.80;;;3.42;;
51174;SDS011;37240;50.104;20.010;2023-08-30T02:05:20;3.78;;;3.50;;
51174;SDS011;37240;50.104;20.010;2023-08-30T02:10:25;32.63;;;20.02;;
51174;SDS011;37240;50.104;20.010;2023-08-30T02:15:37;11.48;;;7.38;;
51174;SDS011;37240;50.104;20.010;2023-08-30T02:20:41;7.70;;;5.05;;
51174;SDS011;37240;50.104;20.010;2023-08-30T02:25:42;5.72;;;4.07;;
51174;SDS011;37240;50.104;20.010;2023-08-30T02:30:42;6.25;;;4.85;;
51174;SDS011;37240;50.104;20.010;2023-08-30T02:35:43;5.32;;;4.20;;
51174;SDS011;37240;50.104;20.010;2023-08-30T02:40:43;4.30;;;3.88;;
51174;SDS011;37240;50.104;20.010;2023-08-30T02:45:44;5.68;;;3.67;;
51174;SDS011;37240;50.104;20.010;2023-08-30T02:50:45;3.67;;;3.25;;
51174;SDS011;37240;50.104;20.010;2023-08-30T02:55:46;3.35;;;3.15;;
51174;SDS011;37240;50.104;20.010;2023-08-30T03:00:47;4.20;;;3.90;;
51174;SDS011;37240;50.104;20.010;2023-08-30T03:05:47;4.22;;;3.83;;
51174;SDS011;37240;50.104;20.010;2023-08-30T03:10:48;6.70;;;4.18;;
51174;SDS011;37240;50.104;20.010;2023-08-30T03:15:48;6.97;;;4.10;;
51174;SDS011;37240;50.104;20.010;2023-08-30T03:20:49;4.85;;;4.45;;
51174;SDS011;37240;50.104;20.010;2023-08-30T03:26:06;4.45;;;4.13;;
51174;SDS011;37240;50.104;20.010;2023-08-30T03:31:14;4.40;;;4.00;;
51174;SDS011;37240;50.104;20.010;2023-08-30T03:36:16;7.43;;;4.45;;
51174;SDS011;37240;50.104;20.010;2023-08-30T03:41:17;5.97;;;5.22;;
51174;SDS011;37240;50.104;20.010;2023-08-30T03:46:18;5.15;;;4.55;;
51174;SDS011;37240;50.104;20.010;2023-08-30T03:51:19;5.10;;;4.55;;
51174;SDS011;37240;50.104;20.010;2023-08-30T03:56:19;4.18;;;3.83;;
51174;SDS011;37240;50.104;20.010;2023-08-30T04:01:20;4.82;;;4.43;;
51174;SDS011;37240;50.104;20.010;2023-08-30T04:06:20;5.95;;;5.30;;
51174;SDS011;37240;50.104;20.010;2023-08-30T04:11:21;6.57;;;4.90;;
51174;SDS011;37240;50.104;20.010;2023-08-30T04:16:22;6.43;;;5.75;;
51174;SDS011;37240;50.104;20.010;2023-08-30T04:21:22;5.82;;;5.32;;
51174;SDS011;37240;50.104;20.010;2023-08-30T04:26:23;7.35;;;5.35;;
51174;SDS011;37240;50.104;20.010;2023-08-30T04:31:24;5.35;;;4.88;;
51174;SDS011;37240;50.104;20.010;2023-08-30T04:36:24;9.25;;;4.82;;
51174;SDS011;37240;50.104;20.010;2023-08-30T04:41:25;5.13;;;4.72;;
51174;SDS011;37240;50.104;20.010;2023-08-30T04:46:25;5.32;;;4.93;;
51174;SDS011;37240;50.104;20.010;2023-08-30T04:51:26;9.77;;;5.97;;
51174;SDS011;37240;50.104;20.010;2023-08-30T04:56:27;9.48;;;5.82;;
51174;SDS011;37240;50.104;20.010;2023-08-30T05:01:27;10.48;;;6.43;;
51174;SDS011;37240;50.104;20.010;2023-08-30T05:06:28;14.27;;;6.32;;
51174;SDS011;37240;50.104;20.010;2023-08-30T05:11:28;10.93;;;5.95;;
51174;SDS011;37240;50.104;20.010;2023-08-30T05:16:29;7.05;;;5.55;;
51174;SDS011;37240;50.104;20.010;2023-08-30T05:21:29;6.65;;;5.75;;
51174;SDS011;37240;50.104;20.010;2023-08-30T05:26:30;5.43;;;4.75;;
51174;SDS011;37240;50.104;20.010;2023-08-30T05:31:31;5.95;;;5.45;;
51174;SDS011;37240;50.104;20.010;2023-08-30T05:36:31;5.82;;;5.22;;
51174;SDS011;37240;50.104;20.010;2023-08-30T05:41:32;9.38;;;5.90;;
51174;SDS011;37240;50.104;20.010;2023-08-30T05:46:32;7.40;;;6.53;;
51174;SDS011;37240;50.104;20.010;2023-08-30T05:51:33;8.65;;;6.00;;
51174;SDS011;37240;50.104;20.010;2023-08-30T05:56:33;10.90;;;6.80;;
51174;SDS011;37240;50.104;20.010;2023-08-30T06:01:34;9.85;;;5.85;;
51174;SDS011;37240;50.104;20.010;2023-08-30T06:06:35;7.63;;;5.70;;
51174;SDS011;37240;50.104;20.010;2023-08-30T06:11:35;10.15;;;5.75;;
51174;SDS011;37240;50.104;20.010;2023-08-30T06:16:36;7.57;;;6.50;;
51174;SDS011;37240;50.104;20.010;2023-08-30T06:21:36;6.57;;;5.13;;
51174;SDS011;37240;50.104;20.010;2023-08-30T06:26:37;5.90;;;5.30;;
51174;SDS011;37240;50.104;20.010;2023-08-30T06:31:37;7.10;;;4.85;;
51174;SDS011;37240;50.104;20.010;2023-08-30T06:36:38;5.88;;;5.32;;
51174;SDS011;37240;50.104;20.010;2023-08-30T06:41:38;5.43;;;4.90;;
51174;SDS011;37240;50.104;20.010;2023-08-30T06:46:39;6.15;;;5.55;;
51174;SDS011;37240;50.104;20.010;2023-08-30T06:51:40;6.45;;;5.78;;
51174;SDS011;37240;50.104;20.010;2023-08-30T06:56:40;6.07;;;5.10;;
51174;SDS011;37240;50.104;20.010;2023-08-30T07:01:41;13.30;;;5.72;;
51174;SDS011;37240;50.104;20.010;2023-08-30T07:06:41;7.00;;;5.70;;
51174;SDS011;37240;50.104;20.010;2023-08-30T07:11:42;6.75;;;5.63;;
51174;SDS011;37240;50.104;20.010;2023-08-30T07:16:43;8.40;;;6.15;;
51174;SDS011;37240;50.104;20.010;2023-08-30T07:21:44;7.13;;;6.05;;
51174;SDS011;37240;50.104;20.010;2023-08-30T07:26:45;6.30;;;5.57;;
51174;SDS011;37240;50.104;20.010;2023-08-30T07:31:45;8.75;;;6.85;;
51174;SDS011;37240;50.104;20.010;2023-08-30T07:36:46;7.00;;;6.30;;
51174;SDS011;37240;50.104;20.010;2023-08-30T07:41:46;18.05;;;8.20;;
51174;SDS011;37240;50.104;20.010;2023-08-30T07:46:47;13.18;;;7.70;;
51174;SDS011;37240;50.104;20.010;2023-08-30T07:51:47;10.52;;;8.18;;
51174;SDS011;37240;50.104;20.010;2023-08-30T07:56:48;14.98;;;7.22;;
51174;SDS011;37240;50.104;20.010;2023-08-30T08:01:48;13.10;;;7.95;;
51174;SDS011;37240;50.104;20.010;2023-08-30T08:06:49;10.32;;;5.97;;
51174;SDS011;37240;50.104;20.010;2023-08-30T08:11:50;10.45;;;6.88;;
51174;SDS011;37240;50.104;20.010;2023-08-30T08:16:50;14.60;;;7.10;;
51174;SDS011;37240;50.104;20.010;2023-08-30T08:21:51;17.02;;;7.35;;
51174;SDS011;37240;50.104;20.010;2023-08-30T08:26:51;9.55;;;8.10;;
51174;SDS011;37240;50.104;20.010;2023-08-30T08:31:52;11.98;;;9.05;;
51174;SDS011;37240;50.104;20.010;2023-08-30T08:36:52;12.90;;;9.27;;
51174;SDS011;37240;50.104;20.010;2023-08-30T08:41:53;13.88;;;8.77;;
51174;SDS011;37240;50.104;20.010;2023-08-30T08:46:54;13.65;;;9.15;;
51174;SDS011;37240;50.104;20.010;2023-08-30T08:51:54;12.75;;;9.73;;
51174;SDS011;37240;50.104;20.010;2023-08-30T08:56:55;22.95;;;10.07;;
51174;SDS011;37240;50.104;20.010;2023-08-30T09:01:57;18.63;;;10.15;;
51174;SDS011;37240;50.104;20.010;2023-08-30T09:06:58;13.18;;;9.07;;
51174;SDS011;37240;50.104;20.010;2023-08-30T09:11:59;14.50;;;9.00;;
51174;SDS011;37240;50.104;20.010;2023-08-30T09:17:01;13.77;;;8.23;;
51174;SDS011;37240;50.104;20.010;2023-08-30T09:22:02;12.68;;;9.15;;
51174;SDS011;37240;50.104;20.010;2023-08-30T09:27:03;12.10;;;8.23;;
51174;SDS011;37240;50.104;20.010;2023-08-30T09:32:04;13.40;;;8.65;;
51174;SDS011;37240;50.104;20.010;2023-08-30T09:37:04;12.55;;;7.82;;
51174;SDS011;37240;50.104;20.010;2023-08-30T09:42:05;9.48;;;6.50;;
51174;SDS011;37240;50.104;20.010;2023-08-30T09:47:05;7.47;;;6.13;;
51174;SDS011;37240;50.104;20.010;2023-08-30T09:52:06;7.20;;;5.07;;
51174;SDS011;37240;50.104;20.010;2023-08-30T09:57:08;28.17;;;17.92;;
51174;SDS011;37240;50.104;20.010;2023-08-30T10:02:09;19.23;;;9.32;;
51174;SDS011;37240;50.104;20.010;2023-08-30T10:07:10;11.45;;;5.80;;
51174;SDS011;37240;50.104;20.010;2023-08-30T10:12:12;6.97;;;4.95;;
51174;SDS011;37240;50.104;20.010;2023-08-30T10:17:12;7.45;;;4.65;;
51174;SDS011;37240;50.104;20.010;2023-08-30T10:22:16;7.40;;;5.18;;
51174;SDS011;37240;50.104;20.010;2023-08-30T10:27:17;10.95;;;5.28;;
51174;SDS011;37240;50.104;20.010;2023-08-30T10:32:19;5.95;;;4.60;;
51174;SDS011;37240;50.104;20.010;2023-08-30T10:37:25;5.03;;;4.63;;
51174;SDS011;37240;50.104;20.010;2023-08-30T10:42:26;9.60;;;5.68;;
51174;SDS011;37240;50.104;20.010;2023-08-30T10:47:27;7.97;;;4.93;;
51174;SDS011;37240;50.104;20.010;2023-08-30T10:52:29;6.55;;;5.72;;
51174;SDS011;37240;50.104;20.010;2023-08-30T10:57:29;6.40;;;5.80;;
51174;SDS011;37240;50.104;20.010;2023-08-30T11:02:30;11.23;;;7.30;;
51174;SDS011;37240;50.104;20.010;2023-08-30T11:07:32;12.55;;;8.95;;
51174;SDS011;37240;50.104;20.010;2023-08-30T11:12:33;10.35;;;6.78;;
51174;SDS011;37240;50.104;20.010;2023-08-30T11:17:34;29.10;;;7.20;;
51174;SDS011;37240;50.104;20.010;2023-08-30T11:22:35;7.13;;;5.72;;
51174;SDS011;37240;50.104;20.010;2023-08-30T11:27:40;6.95;;;6.05;;
51174;SDS011;37240;50.104;20.010;2023-08-30T11:32:41;7.68;;;6.65;;
51174;SDS011;37240;50.104;20.010;2023-08-30T11:37:42;8.82;;;6.18;;
51174;SDS011;37240;50.104;20.010;2023-08-30T11:42:43;6.82;;;5.38;;
51174;SDS011;37240;50.104;20.010;2023-08-30T11:47:44;6.55;;;5.18;;
51174;SDS011;37240;50.104;20.010;2023-08-30T11:52:45;7.15;;;6.45;;
51174;SDS011;37240;50.104;20.010;2023-08-30T11:57:48;12.00;;;6.13;;
51174;SDS011;37240;50.104;20.010;2023-08-30T12:02:49;8.13;;;5.90;;
51174;SDS011;37240;50.104;20.010;2023-08-30T12:07:49;7.18;;;6.45;;
51174;SDS011;37240;50.104;20.010;2023-08-30T12:12:50;8.10;;;6.78;;
51174;SDS011;37240;50.104;20.010;2023-08-30T12:17:51;9.20;;;7.20;;
51174;SDS011;37240;50.104;20.010;2023-08-30T12:22:52;11.73;;;7.43;;
51174;SDS011;37240;50.104;20.010;2023-08-30T12:27:53;6.97;;;6.20;;
51174;SDS011;37240;50.104;20.010;2023-08-30T12:33:00;14.38;;;7.85;;
51174;SDS011;37240;50.104;20.010;2023-08-30T12:38:01;13.68;;;7.72;;
51174;SDS011;37240;50.104;20.010;2023-08-30T12:43:01;13.23;;;8.32;;
51174;SDS011;37240;50.104;20.010;2023-08-30T12:48:02;16.80;;;10.25;;
51174;SDS011;37240;50.104;20.010;2023-08-30T12:53:03;21.25;;;10.02;;
51174;SDS011;37240;50.104;20.010;2023-08-30T12:58:07;18.88;;;10.60;;
51174;SDS011;37240;50.104;20.010;2023-08-30T13:03:08;15.75;;;11.20;;
51174;SDS011;37240;50.104;20.010;2023-08-30T13:08:08;17.60;;;10.88;;
51174;SDS011;37240;50.104;20.010;2023-08-30T13:13:09;22.55;;;11.65;;
51174;SDS011;37240;50.104;20.010;2023-08-30T13:18:10;19.13;;;12.30;;
51174;SDS011;37240;50.104;20.010;2023-08-30T13:23:10;20.63;;;11.77;;
51174;SDS011;37240;50.104;20.010;2023-08-30T13:28:11;23.67;;;12.70;;
51174;SDS011;37240;50.104;20.010;2023-08-30T13:33:11;29.75;;;15.15;;
51174;SDS011;37240;50.104;20.010;2023-08-30T13:38:12;24.27;;;14.23;;
51174;SDS011;37240;50.104;20.010;2023-08-30T13:43:13;24.60;;;15.32;;
51174;SDS011;37240;50.104;20.010;2023-08-30T13:48:13;23.20;;;15.48;;
51174;SDS011;37240;50.104;20.010;2023-08-30T13:53:14;22.73;;;15.18;;
51174;SDS011;37240;50.104;20.010;2023-08-30T13:58:14;27.17;;;16.63;;
51174;SDS011;37240;50.104;20.010;2023-08-30T14:03:15;23.63;;;14.95;;
51174;SDS011;37240;50.104;20.010;2023-08-30T14:08:16;22.75;;;14.98;;
51174;SDS011;37240;50.104;20.010;2023-08-30T14:13:16;22.27;;;14.80;;
51174;SDS011;37240;50.104;20.010;2023-08-30T14:18:17;24.23;;;12.60;;
51174;SDS011;37240;50.104;20.010;2023-08-30T14:23:17;18.10;;;11.23;;
51174;SDS011;37240;50.104;20.010;2023-08-30T14:28:18;23.27;;;12.73;;
51174;SDS011;37240;50.104;20.010;2023-08-30T14:33:18;24.73;;;12.80;;
51174;SDS011;37240;50.104;20.010;2023-08-30T14:38:19;21.45;;;11.45;;
51174;SDS011;37240;50.104;20.010;2023-08-30T14:43:20;16.75;;;10.77;;
51174;SDS011;37240;50.104;20.010;2023-08-30T14:48:21;17.20;;;10.60;;
51174;SDS011;37240;50.104;20.010;2023-08-30T14:53:21;19.17;;;9.75;;
51174;SDS011;37240;50.104;20.010;2023-08-30T14:58:22;22.88;;;10.50;;
51174;SDS011;37240;50.104;20.010;2023-08-30T15:03:22;14.55;;;9.43;;
51174;SDS011;37240;50.104;20.010;2023-08-30T15:08:23;17.30;;;8.77;;
51174;SDS011;37240;50.104;20.010;2023-08-30T15:13:24;11.52;;;7.32;;
51174;SDS011;37240;50.104;20.010;2023-08-30T15:18:25;12.63;;;8.38;;
51174;SDS011;37240;50.104;20.010;2023-08-30T15:23:25;16.38;;;8.60;;
51174;SDS011;37240;50.104;20.010;2023-08-30T15:28:26;11.88;;;8.15;;
51174;SDS011;37240;50.104;20.010;2023-08-30T15:33:26;17.25;;;9.45;;
51174;SDS011;37240;50.104;20.010;2023-08-30T15:38:27;14.93;;;8.95;;
51174;SDS011;37240;50.104;20.010;2023-08-30T15:43:27;13.73;;;8.43;;
51174;SDS011;37240;50.104;20.010;2023-08-30T15:48:28;12.18;;;8.32;;
51174;SDS011;37240;50.104;20.010;2023-08-30T15:53:29;11.32;;;6.90;;
51174;SDS011;37240;50.104;20.010;2023-08-30T15:58:29;10.90;;;6.70;;
51174;SDS011;37240;50.104;20.010;2023-08-30T16:03:30;11.45;;;7.55;;
51174;SDS011;37240;50.104;20.010;2023-08-30T16:08:31;26.85;;;10.20;;
51174;SDS011;37240;50.104;20.010;2023-08-30T16:13:31;17.30;;;9.88;;
51174;SDS011;37240;50.104;20.010;2023-08-30T16:18:32;16.83;;;9.77;;
51174;SDS011;37240;50.104;20.010;2023-08-30T16:23:32;20.27;;;9.80;;
51174;SDS011;37240;50.104;20.010;2023-08-30T16:28:33;12.15;;;7.35;;
51174;SDS011;37240;50.104;20.010;2023-08-30T16:33:33;18.35;;;8.40;;
51174;SDS011;37240;50.104;20.010;2023-08-30T16:38:34;13.65;;;8.25;;
51174;SDS011;37240;50.104;20.010;2023-08-30T16:43:34;16.55;;;8.38;;
51174;SDS011;37240;50.104;20.010;2023-08-30T16:48:35;35.15;;;13.90;;
51174;SDS011;37240;50.104;20.010;2023-08-30T16:53:35;45.58;;;17.67;;
51174;SDS011;37240;50.104;20.010;2023-08-30T16:58:36;54.92;;;26.25;;
51174;SDS011;37240;50.104;20.010;2023-08-30T17:03:37;16.17;;;8.00;;
51174;SDS011;37240;50.104;20.010;2023-08-30T17:08:37;40.40;;;20.38;;
51174;SDS011;37240;50.104;20.010;2023-08-30T17:13:38;20.90;;;10.05;;
51174;SDS011;37240;50.104;20.010;2023-08-30T17:18:40;18.63;;;9.70;;
51174;SDS011;37240;50.104;20.010;2023-08-30T17:23:41;17.92;;;9.07;;
51174;SDS011;37240;50.104;20.010;2023-08-30T17:28:41;12.77;;;7.90;;
51174;SDS011;37240;50.104;20.010;2023-08-30T17:33:42;27.23;;;9.63;;
51174;SDS011;37240;50.104;20.010;2023-08-30T17:38:42;29.75;;;15.98;;
51174;SDS011;37240;50.104;20.010;2023-08-30T17:43:43;19.95;;;11.25;;
51174;SDS011;37240;50.104;20.010;2023-08-30T17:48:43;19.98;;;10.40;;
51174;SDS011;37240;50.104;20.010;2023-08-30T17:53:44;16.65;;;8.77;;
51174;SDS011;37240;50.104;20.010;2023-08-30T17:58:44;12.80;;;8.77;;
51174;SDS011;37240;50.104;20.010;2023-08-30T18:03:45;15.38;;;9.70;;
51174;SDS011;37240;50.104;20.010;2023-08-30T18:08:45;17.45;;;8.80;;
51174;SDS011;37240;50.104;20.010;2023-08-30T18:13:47;24.13;;;9.93;;
51174;SDS011;37240;50.104;20.010;2023-08-30T18:18:48;24.58;;;10.32;;
51174;SDS011;37240;50.104;20.010;2023-08-30T18:29:12;59.70;;;29.27;;
51174;SDS011;37240;50.104;20.010;2023-08-30T18:34:13;26.80;;;12.50;;
51174;SDS011;37240;50.104;20.010;2023-08-30T18:39:16;16.23;;;9.25;;
51174;SDS011;37240;50.104;20.010;2023-08-30T18:44:16;17.88;;;6.63;;
51174;SDS011;37240;50.104;20.010;2023-08-30T18:49:17;10.10;;;6.05;;
51174;SDS011;37240;50.104;20.010;2023-08-30T18:54:17;5.93;;;5.25;;
51174;SDS011;37240;50.104;20.010;2023-08-30T18:59:18;7.10;;;5.00;;
51174;SDS011;37240;50.104;20.010;2023-08-30T19:04:18;10.30;;;4.18;;
51174;SDS011;37240;50.104;20.010;2023-08-30T19:09:19;6.20;;;2.97;;
51174;SDS011;37240;50.104;20.010;2023-08-30T19:14:20;12.00;;;4.00;;
51174;SDS011;37240;50.104;20.010;2023-08-30T19:19:20;3.10;;;2.90;;
51174;SDS011;37240;50.104;20.010;2023-08-30T19:24:21;7.43;;;3.28;;
51174;SDS011;37240;50.104;20.010;2023-08-30T19:29:21;3.33;;;3.13;;
51174;SDS011;37240;50.104;20.010;2023-08-30T19:34:22;6.07;;;3.00;;
51174;SDS011;37240;50.104;20.010;2023-08-30T19:39:23;5.40;;;4.40;;
51174;SDS011;37240;50.104;20.010;2023-08-30T19:44:23;9.38;;;6.97;;
51174;SDS011;37240;50.104;20.010;2023-08-30T19:49:24;5.32;;;4.00;;
51174;SDS011;37240;50.104;20.010;2023-08-30T19:54:25;4.05;;;3.58;;
51174;SDS011;37240;50.104;20.010;2023-08-30T19:59:27;2.80;;;2.58;;
51174;SDS011;37240;50.104;20.010;2023-08-30T20:04:28;3.22;;;2.15;;
51174;SDS011;37240;50.104;20.010;2023-08-30T20:09:28;2.67;;;2.47;;
51174;SDS011;37240;50.104;20.010;2023-08-30T20:14:29;6.07;;;4.55;;
51174;SDS011;37240;50.104;20.010;2023-08-30T20:19:29;5.47;;;3.70;;
51174;SDS011;37240;50.104;20.010;2023-08-30T20:24:30;8.20;;;4.47;;
51174;SDS011;37240;50.104;20.010;2023-08-30T20:29:31;4.95;;;4.43;;
51174;SDS011;37240;50.104;20.010;2023-08-30T20:34:34;6.30;;;5.10;;
51174;SDS011;37240;50.104;20.010;2023-08-30T20:39:35;7.93;;;6.15;;
51174;SDS011;37240;50.104;20.010;2023-08-30T20:44:35;24.70;;;17.45;;
51174;SDS011;37240;50.104;20.010;2023-08-30T20:49:36;17.58;;;10.60;;
51174;SDS011;37240;50.104;20.010;2023-08-30T20:54:37;9.70;;;6.47;;
51174;SDS011;37240;50.104;20.010;2023-08-30T20:59:37;6.55;;;5.88;;
51174;SDS011;37240;50.104;20.010;2023-08-30T21:04:38;7.03;;;6.20;;
51174;SDS011;37240;50.104;20.010;2023-08-30T21:09:38;7.40;;;5.82;;
51174;SDS011;37240;50.104;20.010;2023-08-30T21:14:39;11.65;;;6.15;;
51174;SDS011;37240;50.104;20.010;2023-08-30T21:19:39;6.07;;;5.57;;
51174;SDS011;37240;50.104;20.010;2023-08-30T21:24:40;7.05;;;6.32;;
51174;SDS011;37240;50.104;20.010;2023-08-30T21:29:40;9.60;;;6.25;;
51174;SDS011;37240;50.104;20.010;2023-08-30T21:34:41;11.52;;;8.98;;
51174;SDS011;37240;50.104;20.010;2023-08-30T21:39:41;14.77;;;9.60;;
51174;SDS011;37240;50.104;20.010;2023-08-30T21:44:42;14.10;;;9.95;;
51174;SDS011;37240;50.104;20.010;2023-08-30T21:49:43;14.25;;;9.90;;
51174;SDS011;37240;50.104;20.010;2023-08-30T21:54:43;17.45;;;11.02;;
51174;SDS011;37240;50.104;20.010;2023-08-30T21:59:44;17.02;;;11.63;;
51174;SDS011;37240;50.104;20.010;2023-08-30T22:04:44;17.05;;;11.65;;
51174;SDS011;37240;50.104;20.010;2023-08-30T22:09:45;18.90;;;11.70;;
51174;SDS011;37240;50.104;20.010;2023-08-30T22:14:45;15.35;;;10.95;;
51174;SDS011;37240;50.104;20.010;2023-08-30T22:19:46;13.30;;;10.38;;
51174;SDS011;37240;50.104;20.010;2023-08-30T22:24:46;13.27;;;10.63;;
51174;SDS011;37240;50.104;20.010;2023-08-30T22:29:47;13.82;;;10.73;;
51174;SDS011;37240;50.104;20.010;2023-08-30T22:34:48;18.98;;;13.55;;
51174;SDS011;37240;50.104;20.010;2023-08-30T22:39:48;20.08;;;13.73;;
51174;SDS011;37240;50.104;20.010;2023-08-30T22:44:49;23.40;;;11.93;;
51174;SDS011;37240;50.104;20.010;2023-08-30T22:49:49;19.65;;;11.88;;
51174;SDS011;37240;50.104;20.010;2023-08-30T22:54:50;19.73;;;11.20;;
51174;SDS011;37240;50.104;20.010;2023-08-30T22:59:50;17.40;;;10.85;;
51174;SDS011;37240;50.104;20.010;2023-08-30T23:04:51;19.67;;;12.52;;
51174;SDS011;37240;50.104;20.010;2023-08-30T23:09:51;23.38;;;12.85;;
51174;SDS011;37240;50.104;20.010;2023-08-30T23:14:52;19.35;;;12.35;;
51174;SDS011;37240;50.104;20.010;2023-08-30T23:19:52;21.58;;;12.05;;
51174;SDS011;37240;50.104;20.010;2023-08-30T23:24:53;19.33;;;11.93;;
51174;SDS011;37240;50.104;20.010;2023-08-30T23:29:54;16.55;;;10.48;;
51174;SDS011;37240;50.104;20.010;2023-08-30T23:34:54;22.73;;;12.38;;
51174;SDS011;37240;50.104;20.010;2023-08-30T23:39:55;21.05;;;12.48;;
51174;SDS011;37240;50.104;20.010;2023-08-30T23:44:55;12.85;;;9.65;;
51174;SDS011;37240;50.104;20.010;2023-08-30T23:49:59;18.70;;;11.05;;
51174;SDS011;37240;50.104;20.010;2023-08-30T23:54:59;15.48;;;10.75;;
